Portada
METAR-TAF:

METAR-TAF

Aeroports :

Phitsanulok, Tailàndia

latitud: 16-46-23N, longitud: 100-16-56E, altitud: 47 m

Observació

L'informe es va fer fa 26 minuts, a les 01:00 UTC
Vent 2 kt amb direcció variable
Temperatura 26°C
Humitat 84%
Pressió 1015 hPa
Visibilitat 10 km o més
Escasses núvols a una alçada de 3000 ft

METAR: VTPP 140100Z VRB02KT 9999 FEW030 26/23 Q1015 NOSIG

Hora: 08:26 (01:26 UTC)

Pronòstic

L'informe es va fer fa 2 hores i 26 minuts, a les 23:00 UTC
Pronòstic vàlid del 14 a les 00 UTC al 14 a les 24 UTC
Vent 5 kt del Est
Visibilitat: 4000 m
Núvols disperses a una alçada de 3500 ft
boirina
Evolucionant progressivament
l' 14 a les 01 UTC al 14 a les 03 UTC
Visibilitat: 8000 m

TAF: VTPP 132300Z 1400/1424 08005KT 4000 BR SCT035 BECMG 1401/1403 8000 NSW

Observacions i pronòstics meteorològics de més de 4000 aeroports (METAR i TAF).

Les estacions disponibles són els punts grocs i vermells al mapa.

Posi el ratolí al punt desitjat per veure el nom de l'estació.

Feu clic per veure les observacions i els pronòstics meteorològics.

Per canviar el mapa: feu clic els botons verds amb una creu de color negre per apropar; al botó verd amb un guió per allunyar la imatge; o en les fletxes verdes per a mapes adjacents.


METAR-TAF: